CPS7 weather

Orton / Smith Field
Orton, Ontario, Canada

Public forecast

Using degrees Celsius for public forecast. Weather courtesy of forecast.io.

Closest aviation weather report (METAR) to Orton / Smith Field

Closest report is Waterloo Airport, 20.0 nm (37.0 km) SSW. Retrieved 2019/10/19 05:00 UTC (37 minutes ago):

CYKF 190500Z AUTO 00000KT 3/8SM FZFG CLR M01/M01 A3004 RMK SLP184

Closest aviation forecast (TAF) to Orton / Smith Field

Closest forecast is Waterloo Airport, 20.0 nm (37.0 km) SSW. Retrieved 2019-10-19 02:45 UTC (3 hours ago):

TAF TAF CYKF 190144Z 1902/1914 30005KT P6SM FEW030 FM190600 VRB03KT P6SM SKC PROB30 1906/1912 1/2SM FG RMK FCST BASED ON AUTO OBS NXT FCST BY 190800Z